createdAt,value
2022-10-23T00:01:47.196Z,12.48
2022-10-23T00:06:54.197Z,12.28
2022-10-23T00:11:57.043Z,12.14
2022-10-23T00:17:00.204Z,12.15
2022-10-23T00:22:04.497Z,12.17
2022-10-23T00:27:07.253Z,12.05
2022-10-23T00:32:10.023Z,12.03
2022-10-23T00:37:14.130Z,11.97
2022-10-23T00:42:17.919Z,11.99
2022-10-23T00:47:20.869Z,11.94
2022-10-23T00:52:25.604Z,11.85
2022-10-23T01:02:31.520Z,11.80
2022-10-23T01:07:44.511Z,11.75
2022-10-23T01:12:53.638Z,11.74
2022-10-23T01:18:01.238Z,11.69
2022-10-23T01:23:18.355Z,11.67
2022-10-23T01:28:30.557Z,11.66
2022-10-23T01:33:37.022Z,11.67
2022-10-23T01:38:45.899Z,11.70
2022-10-23T01:44:05.277Z,11.70
2022-10-23T01:49:13.952Z,11.68
2022-10-23T01:54:20.518Z,11.62
2022-10-23T01:59:30.868Z,11.62
2022-10-23T02:04:37.489Z,11.60
2022-10-23T02:09:41.077Z,11.60
2022-10-23T02:14:54.434Z,11.55
2022-10-23T02:20:01.533Z,11.58
2022-10-23T02:25:10.339Z,11.61
2022-10-23T02:30:19.803Z,11.62
2022-10-23T02:35:29.519Z,11.60
2022-10-23T02:40:45.314Z,11.60
2022-10-23T02:45:56.942Z,11.57
2022-10-23T02:51:07.286Z,11.51
2022-10-23T02:56:17.056Z,11.52
2022-10-23T03:01:27.403Z,11.52
2022-10-23T03:06:30.537Z,11.50
2022-10-23T03:11:33.459Z,11.59
2022-10-23T03:16:37.596Z,11.57
2022-10-23T03:21:41.187Z,11.48
2022-10-23T03:26:44.659Z,11.43
2022-10-23T03:31:48.894Z,11.34
2022-10-23T03:36:51.769Z,11.29
2022-10-23T03:41:56.468Z,11.26
2022-10-23T03:47:00.810Z,11.34
2022-10-23T03:52:03.966Z,11.38
2022-10-23T03:57:06.712Z,11.33
2022-10-23T04:02:11.615Z,11.27
2022-10-23T04:07:14.525Z,11.20
2022-10-23T04:12:17.414Z,11.13
2022-10-23T04:17:21.707Z,11.04
2022-10-23T04:22:28.305Z,11.02
2022-10-23T04:27:31.380Z,10.98
2022-10-23T04:32:36.448Z,10.93
2022-10-23T04:37:40.719Z,10.97
2022-10-23T04:42:44.154Z,10.97
2022-10-23T04:47:50.126Z,10.98
2022-10-23T04:52:55.289Z,10.94
2022-10-23T04:58:16.459Z,10.78
2022-10-23T05:03:23.338Z,10.71
2022-10-23T05:08:26.381Z,10.67
2022-10-23T05:13:47.825Z,10.56
2022-10-23T05:18:52.335Z,10.63
2022-10-23T05:23:57.359Z,10.57
2022-10-23T05:29:00.289Z,10.46
2022-10-23T05:34:09.920Z,10.45
2022-10-23T05:39:20.166Z,10.45
2022-10-23T05:44:23.244Z,10.51
2022-10-23T05:49:40.734Z,10.42
2022-10-23T05:55:01.664Z,10.45
2022-10-23T06:00:22.775Z,10.41
2022-10-23T06:05:42.738Z,10.42
2022-10-23T06:10:57.536Z,10.46
2022-10-23T06:16:00.269Z,10.45
2022-10-23T06:21:07.667Z,10.52
2022-10-23T06:26:13.439Z,10.42
2022-10-23T06:31:41.177Z,10.40
2022-10-23T06:36:45.395Z,10.45
2022-10-23T06:42:15.068Z,10.32
2022-10-23T06:47:38.077Z,10.39
2022-10-23T06:53:00.929Z,10.53
2022-10-23T06:58:04.572Z,10.48
2022-10-23T07:03:08.547Z,10.52
2022-10-23T07:08:13.083Z,10.52
2022-10-23T07:13:18.210Z,10.79
2022-10-23T07:18:37.275Z,10.88
2022-10-23T07:24:00.494Z,11.07
2022-10-23T07:29:04.007Z,11.11
2022-10-23T07:34:10.884Z,11.07
2022-10-23T07:39:15.508Z,11.38
2022-10-23T07:44:27.898Z,11.51
2022-10-23T07:49:35.131Z,11.69
2022-10-23T07:54:39.331Z,11.77
2022-10-23T07:59:54.959Z,12.05
2022-10-23T08:04:59.780Z,12.16
2022-10-23T08:10:11.108Z,12.52
2022-10-23T08:15:16.955Z,12.78
2022-10-23T08:20:35.271Z,12.99
2022-10-23T08:25:40.078Z,13.29
2022-10-23T08:30:44.538Z,13.81
2022-10-23T08:35:48.345Z,13.88
2022-10-23T08:41:01.480Z,14.19
2022-10-23T08:46:21.009Z,14.13
2022-10-23T08:52:03.737Z,14.53
2022-10-23T08:57:14.707Z,14.58
2022-10-23T09:02:22.444Z,14.52
2022-10-23T09:07:36.466Z,14.75
2022-10-23T09:12:41.070Z,14.81
2022-10-23T09:17:45.677Z,14.93
2022-10-23T09:22:51.217Z,15.05
2022-10-23T09:27:59.051Z,15.09
2022-10-23T09:33:16.231Z,15.07
2022-10-23T09:38:28.624Z,15.28
2022-10-23T09:43:32.800Z,14.99
2022-10-23T09:48:40.051Z,15.24
2022-10-23T09:53:50.428Z,15.46
2022-10-23T09:58:57.544Z,15.42
2022-10-23T10:04:00.673Z,15.63
2022-10-23T10:09:09.338Z,15.71
2022-10-23T10:14:39.245Z,15.75
2022-10-23T10:20:08.554Z,16.04
2022-10-23T10:25:18.293Z,15.99
2022-10-23T10:30:24.675Z,16.13
2022-10-23T10:35:35.332Z,16.33
2022-10-23T10:40:43.748Z,16.55
2022-10-23T10:46:01.986Z,16.62
2022-10-23T10:51:08.482Z,16.50
2022-10-23T10:56:21.599Z,16.50
2022-10-23T11:01:29.909Z,16.47
2022-10-23T11:06:37.587Z,16.60
2022-10-23T11:11:41.647Z,16.62
2022-10-23T11:16:49.032Z,16.55
2022-10-23T11:21:58.401Z,16.58
2022-10-23T11:27:19.684Z,16.62
2022-10-23T11:32:50.214Z,16.83
2022-10-23T11:38:01.147Z,16.91
2022-10-23T11:43:03.902Z,17.16
2022-10-23T11:48:22.990Z,17.28
2022-10-23T11:53:28.981Z,17.30
2022-10-23T11:58:44.309Z,17.13
2022-10-23T12:03:55.236Z,16.95
2022-10-23T12:09:01.884Z,17.06
2022-10-23T12:14:04.799Z,17.11
2022-10-23T12:19:21.385Z,17.17
2022-10-23T12:24:53.612Z,17.18
2022-10-23T12:30:12.888Z,17.10
2022-10-23T12:35:37.107Z,16.98
2022-10-23T12:40:39.988Z,16.97
2022-10-23T12:45:45.094Z,16.99
2022-10-23T12:50:52.003Z,17.04
2022-10-23T13:01:07.888Z,17.24
2022-10-23T13:06:12.681Z,17.45
2022-10-23T13:11:18.501Z,17.45
2022-10-23T13:16:23.597Z,17.32
2022-10-23T13:21:29.666Z,17.15
2022-10-23T13:26:34.954Z,17.22
2022-10-23T13:31:38.282Z,17.03
2022-10-23T13:36:53.606Z,17.13
2022-10-23T13:41:58.142Z,17.15
2022-10-23T13:47:00.986Z,17.10
2022-10-23T13:52:05.289Z,17.12
2022-10-23T13:57:14.586Z,17.04
2022-10-23T14:02:20.954Z,17.10
2022-10-23T14:07:25.256Z,17.01
2022-10-23T14:12:28.078Z,17.11
2022-10-23T14:17:30.896Z,16.98
2022-10-23T14:22:35.032Z,16.82
2022-10-23T14:27:37.824Z,16.74
2022-10-23T14:32:40.907Z,16.63
2022-10-23T14:37:45.517Z,16.73
2022-10-23T14:42:48.698Z,16.57
2022-10-23T14:47:51.491Z,16.60
2022-10-23T14:52:55.593Z,16.52
2022-10-23T14:57:58.588Z,16.46
2022-10-23T15:03:01.593Z,16.35
2022-10-23T15:08:05.835Z,16.32
2022-10-23T15:13:08.696Z,16.27
2022-10-23T15:18:11.499Z,16.20
2022-10-23T15:23:15.609Z,16.07
2022-10-23T15:28:18.412Z,15.98
2022-10-23T15:33:22.084Z,15.95
2022-10-23T15:38:26.406Z,15.82
2022-10-23T15:43:29.195Z,15.77
2022-10-23T15:48:31.955Z,15.73
2022-10-23T15:53:36.389Z,15.69
2022-10-23T15:58:39.509Z,15.64
2022-10-23T16:03:42.468Z,15.51
2022-10-23T16:08:47.075Z,15.48
2022-10-23T16:13:50.261Z,15.46
2022-10-23T16:18:56.691Z,15.48
2022-10-23T16:24:02.984Z,15.48
2022-10-23T16:29:09.139Z,15.51
2022-10-23T16:34:12.726Z,15.48
2022-10-23T16:39:18.980Z,15.49
2022-10-23T16:44:40.149Z,15.52
2022-10-23T16:49:43.290Z,15.47
2022-10-23T16:54:47.429Z,15.46
2022-10-23T16:59:50.174Z,15.41
2022-10-23T17:04:53.639Z,15.37
2022-10-23T17:09:57.790Z,15.36
2022-10-23T17:15:00.635Z,15.31
2022-10-23T17:20:04.450Z,15.32
2022-10-23T17:25:10.596Z,15.17
2022-10-23T17:30:14.460Z,15.19
2022-10-23T17:35:17.316Z,15.13
2022-10-23T17:40:25.032Z,15.08
2022-10-23T17:45:28.291Z,15.09
2022-10-23T17:50:31.175Z,15.07
2022-10-23T17:55:38.902Z,15.02
2022-10-23T18:00:41.821Z,15.03
2022-10-23T18:05:44.646Z,15.02
2022-10-23T18:10:52.170Z,14.97
2022-10-23T18:15:54.963Z,15.02
2022-10-23T18:21:01.033Z,15.08
2022-10-23T18:26:07.049Z,15.07
2022-10-23T18:31:10.293Z,15.06
2022-10-23T18:36:14.746Z,15.06
2022-10-23T18:41:20.061Z,14.90
2022-10-23T18:46:23.548Z,14.88
2022-10-23T18:51:28.676Z,14.78
2022-10-23T18:56:35.708Z,14.68
2022-10-23T19:01:40.822Z,14.84
2022-10-23T19:06:44.166Z,14.66
2022-10-23T19:11:48.588Z,14.84
2022-10-23T19:17:01.150Z,14.91
2022-10-23T19:22:05.657Z,14.85
2022-10-23T19:27:10.607Z,14.85
2022-10-23T19:32:13.821Z,14.85
2022-10-23T19:37:16.682Z,14.97
2022-10-23T19:42:21.113Z,14.97
2022-10-23T19:47:24.240Z,14.95
2022-10-23T19:52:27.378Z,14.94
2022-10-23T19:57:33.728Z,14.83
2022-10-23T20:02:36.798Z,14.91
2022-10-23T20:07:39.558Z,14.98
2022-10-23T20:12:51.491Z,15.06
2022-10-23T20:17:59.698Z,14.98
2022-10-23T20:23:02.547Z,15.00
2022-10-23T20:28:09.081Z,14.79
2022-10-23T20:33:14.455Z,14.66
2022-10-23T20:38:17.306Z,14.86
2022-10-23T20:43:21.635Z,14.70
2022-10-23T20:48:24.367Z,14.58
2022-10-23T20:53:29.599Z,14.58
2022-10-23T20:58:34.119Z,14.51
2022-10-23T21:03:37.166Z,14.51
2022-10-23T21:08:42.598Z,14.45
2022-10-23T21:13:46.825Z,14.65
2022-10-23T21:18:49.690Z,14.79
2022-10-23T21:23:54.658Z,14.87
2022-10-23T21:29:17.317Z,14.97
2022-10-23T21:34:21.083Z,15.03
2022-10-23T21:39:24.205Z,15.21
2022-10-23T21:44:28.429Z,15.34
2022-10-23T21:49:31.211Z,15.35
2022-10-23T21:54:34.122Z,15.29
2022-10-23T21:59:38.273Z,15.31
2022-10-23T22:04:41.468Z,15.27
2022-10-23T22:09:44.645Z,15.55
2022-10-23T22:14:48.766Z,15.45
2022-10-23T22:19:51.609Z,15.81
2022-10-23T22:24:54.411Z,15.93
2022-10-23T22:29:58.625Z,15.67
2022-10-23T22:35:01.449Z,15.56
2022-10-23T22:40:06.613Z,15.50
2022-10-23T22:45:11.449Z,15.69
2022-10-23T22:50:16.279Z,15.62
2022-10-23T22:55:19.100Z,15.43
2022-10-23T23:00:23.555Z,15.40
2022-10-23T23:05:26.616Z,15.33
2022-10-23T23:10:29.463Z,15.36
2022-10-23T23:15:34.025Z,14.97
2022-10-23T23:20:36.968Z,14.77
2022-10-23T23:25:42.298Z,14.74
2022-10-23T23:30:48.093Z,14.85
2022-10-23T23:35:50.945Z,14.87
2022-10-23T23:40:55.263Z,14.77
2022-10-23T23:45:59.938Z,14.74
2022-10-23T23:51:02.701Z,14.81
2022-10-23T23:56:05.992Z,14.84
